Time;durP1;ratioP1;P1;durP2;ratioP2;P2;SDS_P1;SDS_P2;PMS_P1;PMS_P2;Temp;Humidity;BMP_temperature;BMP_pressure;BME280_temperature;BME280_humidity;BME280_pressure;Samples;Min_cycle;Max_cycle;Signal;HPM_P1;HPM_P2
2023/02/16 00:01:48;;;;;;;74.68;46.35;;;11.90;1.00;;;;;;5112929;27;20069;-51
2023/02/16 00:04:20;;;;;;;80.03;47.42;;;11.90;1.00;;;;;;5113760;28;20426;-50
2023/02/16 00:06:46;;;;;;;80.55;47.15;;;11.90;1.00;;;;;;5112894;28;20030;-52
2023/02/16 00:09:12;;;;;;;78.43;48.05;;;11.80;1.00;;;;;;5113180;28;20028;-54
2023/02/16 00:14:25;;;;;;;81.80;50.80;;;11.80;1.00;;;;;;5103722;28;20031;-53
2023/02/16 00:16:55;;;;;;;86.03;49.45;;;11.80;1.00;;;;;;5107187;28;20024;-54
2023/02/16 00:19:25;;;;;;;84.05;49.88;;;11.80;1.00;;;;;;5112724;28;20024;-54
2023/02/16 00:21:54;;;;;;;83.03;50.38;;;11.80;1.00;;;;;;5112379;28;20512;-54
2023/02/16 00:24:20;;;;;;;82.85;51.58;;;11.80;1.00;;;;;;5097990;28;20025;-55
2023/02/16 00:26:46;;;;;;;84.10;51.47;;;11.70;1.00;;;;;;5112823;28;20027;-55
2023/02/16 00:29:27;;;;;;;82.93;51.67;;;11.80;1.00;;;;;;5112833;28;20072;-52
2023/02/16 00:31:54;;;;;;;80.75;50.97;;;11.80;1.00;;;;;;5109260;28;20361;-56
2023/02/16 00:34:36;;;;;;;81.55;51.75;;;11.80;1.00;;;;;;5112679;28;20048;-52
2023/02/16 00:37:29;;;;;;;87.45;51.40;;;11.80;1.00;;;;;;5112890;28;20024;-54
2023/02/16 00:40:01;;;;;;;89.20;52.20;;;11.70;1.00;;;;;;5110156;28;20027;-54
2023/02/16 00:42:31;;;;;;;84.95;51.15;;;11.70;1.00;;;;;;5112803;28;20016;-56
2023/02/16 00:44:58;;;;;;;87.00;51.95;;;11.70;1.00;;;;;;5123699;27;20027;-55
2023/02/16 00:47:38;;;;;;;83.97;52.13;;;11.70;1.00;;;;;;5123559;27;20027;-54
2023/02/16 00:50:16;;;;;;;84.18;52.25;;;11.60;1.00;;;;;;5113349;27;20465;-53
2023/02/16 00:52:42;;;;;;;88.95;54.25;;;11.60;1.00;;;;;;5112093;28;20154;-52
2023/02/16 00:55:13;;;;;;;86.60;51.97;;;11.70;1.00;;;;;;5111729;28;20036;-55
2023/02/16 00:58:02;;;;;;;84.95;53.95;;;11.70;1.00;;;;;;5102589;28;20123;-54
2023/02/16 01:00:38;;;;;;;88.90;54.15;;;11.60;1.00;;;;;;5112263;27;20034;-50
2023/02/16 01:03:25;;;;;;;84.95;52.47;;;11.60;1.00;;;;;;5112704;28;20020;-55
2023/02/16 01:11:06;;;;;;;86.32;53.20;;;11.60;1.00;;;;;;5113624;27;20473;-51
2023/02/16 01:11:24;;;;;;;88.20;54.03;;;11.50;1.00;;;;;;5091891;28;20508;-53
2023/02/16 01:13:51;;;;;;;86.55;52.17;;;11.60;1.00;;;;;;5110611;28;20012;-52
2023/02/16 01:16:21;;;;;;;86.43;53.83;;;11.50;1.00;;;;;;5108593;28;20047;-56
2023/02/16 01:18:47;;;;;;;87.10;54.88;;;11.50;1.00;;;;;;5108065;28;20358;-52
2023/02/16 01:21:13;;;;;;;79.28;51.85;;;11.50;1.00;;;;;;5110471;28;20134;-54
2023/02/16 01:23:39;;;;;;;82.82;53.65;;;11.50;1.00;;;;;;5126662;28;20031;-50
2023/02/16 01:26:10;;;;;;;85.13;54.15;;;11.50;1.00;;;;;;5110539;28;20063;-52
2023/02/16 01:28:39;;;;;;;81.68;51.33;;;11.50;1.00;;;;;;5115272;28;20043;-48
2023/02/16 01:31:05;;;;;;;81.93;52.17;;;11.50;1.00;;;;;;5116190;28;20046;-48
2023/02/16 01:33:31;;;;;;;85.82;53.65;;;11.50;1.00;;;;;;5108479;28;20020;-50
2023/02/16 01:35:57;;;;;;;86.15;52.17;;;11.40;1.00;;;;;;5108644;28;20027;-50
2023/02/16 01:38:25;;;;;;;91.05;54.92;;;11.40;1.00;;;;;;5118685;27;20023;-50
2023/02/16 01:41:21;;;;;;;78.75;50.22;;;11.30;1.00;;;;;;5116146;28;20028;-52
2023/02/16 01:44:28;;;;;;;83.72;53.15;;;11.40;1.00;;;;;;5111165;28;20050;-51
2023/02/16 01:47:15;;;;;;;79.90;49.88;;;11.40;1.00;;;;;;5124498;27;20027;-52
2023/02/16 01:49:41;;;;;;;78.38;47.78;;;11.40;1.00;;;;;;5122573;27;20027;-49
2023/02/16 01:52:33;;;;;;;78.28;47.78;;;11.40;1.00;;;;;;5115195;28;20103;-50
2023/02/16 01:55:31;;;;;;;81.78;48.65;;;11.40;1.00;;;;;;5115384;28;20485;-50
2023/02/16 01:58:15;;;;;;;82.25;49.25;;;11.30;1.00;;;;;;5115799;28;20031;-50
2023/02/16 02:00:55;;;;;;;78.87;46.27;;;11.40;1.00;;;;;;5115690;28;20020;-51
2023/02/16 02:06:23;;;;;;;73.78;45.03;;;11.30;1.00;;;;;;5110644;28;20046;-51
2023/02/16 02:09:06;;;;;;;79.30;47.33;;;11.30;1.00;;;;;;5115760;28;20019;-50
2023/02/16 02:11:44;;;;;;;75.03;44.25;;;11.30;1.00;;;;;;5114970;28;20056;-55
2023/02/16 02:14:34;;;;;;;81.75;46.20;;;11.30;1.00;;;;;;5100579;28;20374;-53
2023/02/16 02:17:05;;;;;;;76.82;44.10;;;11.30;1.00;;;;;;5114774;28;20389;-54
2023/02/16 02:19:40;;;;;;;80.10;44.75;;;11.30;1.00;;;;;;5115369;28;20020;-53
2023/02/16 02:25:30;;;;;;;75.15;44.92;;;11.30;1.00;;;;;;5102594;28;20185;-52
2023/02/16 02:28:20;;;;;;;76.15;45.67;;;11.20;1.00;;;;;;5112440;28;20038;-50
2023/02/16 02:31:09;;;;;;;76.32;45.53;;;11.30;1.00;;;;;;5128509;27;20015;-52
2023/02/16 02:33:53;;;;;;;75.65;43.45;;;11.30;1.00;;;;;;5109444;28;20024;-50
2023/02/16 02:37:04;;;;;;;70.70;44.70;;;11.10;1.00;;;;;;5108271;28;20031;-54
2023/02/16 02:39:37;;;;;;;73.97;45.95;;;11.10;1.00;;;;;;5110158;28;20301;-50
2023/02/16 02:42:09;;;;;;;77.43;45.42;;;11.10;1.00;;;;;;5113846;27;20019;-49
2023/02/16 02:44:48;;;;;;;69.45;45.22;;;11.10;1.00;;;;;;5113840;28;20083;-48
2023/02/16 02:47:15;;;;;;;76.85;46.67;;;11.10;1.00;;;;;;5112856;28;20361;-49
2023/02/16 02:49:47;;;;;;;74.85;45.83;;;11.20;1.00;;;;;;5113902;28;20031;-51
2023/02/16 02:52:13;;;;;;;73.10;45.40;;;11.20;1.00;;;;;;5113076;27;20047;-52
2023/02/16 03:00:40;;;;;;;71.38;43.35;;;11.10;1.00;;;;;;5097701;27;20067;-49
2023/02/16 03:03:11;;;;;;;75.90;45.33;;;11.00;1.00;;;;;;5108687;28;20039;-49
2023/02/16 03:05:40;;;;;;;70.30;43.97;;;11.10;1.00;;;;;;5114658;28;20027;-49
2023/02/16 03:08:14;;;;;;;72.07;44.60;;;11.10;1.00;;;;;;5113776;27;20378;-50
2023/02/16 03:13:58;;;;;;;71.50;42.35;;;11.00;1.00;;;;;;5105090;27;20126;-49
2023/02/16 03:16:33;;;;;;;67.68;42.72;;;11.00;1.00;;;;;;5112469;27;20403;-51
2023/02/16 03:30:15;;;;;;;72.32;45.05;;;11.00;1.00;;;;;;5111317;27;20030;-50
2023/02/16 03:32:42;;;;;;;79.75;46.03;;;10.90;1.00;;;;;;5113529;28;20074;-51
2023/02/16 03:35:11;;;;;;;70.90;44.38;;;10.90;1.00;;;;;;5110615;27;20054;-50
2023/02/16 03:37:39;;;;;;;81.63;50.30;;;10.90;1.00;;;;;;5111587;28;20073;-51
2023/02/16 03:42:52;;;;;;;84.90;52.57;;;10.90;1.00;;;;;;5113623;27;20085;-53
2023/02/16 03:45:20;;;;;;;81.65;53.88;;;10.80;1.00;;;;;;5113501;27;20433;-49
2023/02/16 03:47:45;;;;;;;86.95;55.28;;;10.80;1.00;;;;;;5113656;27;20353;-54
2023/02/16 03:50:11;;;;;;;82.07;52.63;;;10.80;1.00;;;;;;5112529;28;20023;-52
2023/02/16 03:52:37;;;;;;;85.32;55.13;;;10.80;1.00;;;;;;5110003;28;20040;-50
2023/02/16 03:55:02;;;;;;;87.00;54.63;;;10.80;1.00;;;;;;5105446;28;20035;-51
2023/02/16 03:57:28;;;;;;;85.00;53.80;;;10.80;1.00;;;;;;5112874;27;20028;-49
2023/02/16 03:59:54;;;;;;;84.57;53.03;;;10.80;1.00;;;;;;5113423;28;20023;-50
2023/02/16 04:02:20;;;;;;;85.18;53.65;;;10.70;1.00;;;;;;5111374;27;20360;-50
2023/02/16 04:04:46;;;;;;;84.07;52.83;;;10.70;1.00;;;;;;5113492;28;20027;-52
2023/02/16 04:07:12;;;;;;;89.20;54.43;;;10.70;1.00;;;;;;5112402;27;20051;-51
2023/02/16 04:09:37;;;;;;;78.17;51.40;;;10.70;1.00;;;;;;5113016;28;20063;-50
2023/02/16 04:14:47;;;;;;;80.17;52.33;;;10.60;1.00;;;;;;5112996;28;20053;-49
2023/02/16 04:17:12;;;;;;;75.30;50.80;;;10.60;1.00;;;;;;5111871;28;20027;-51
2023/02/16 04:19:38;;;;;;;78.60;51.17;;;10.50;1.00;;;;;;5111549;28;20367;-51
2023/02/16 04:22:04;;;;;;;79.60;50.17;;;10.50;1.00;;;;;;5112764;28;20110;-49
2023/02/16 04:24:29;;;;;;;80.97;51.90;;;10.50;1.00;;;;;;5112575;28;20157;-52
2023/02/16 04:26:55;;;;;;;78.50;50.97;;;10.50;1.00;;;;;;5100693;27;20027;-50
2023/02/16 04:29:20;;;;;;;74.17;50.60;;;10.50;1.00;;;;;;5111414;28;20023;-50
2023/02/16 04:31:46;;;;;;;78.20;49.10;;;10.40;1.00;;;;;;5109830;27;20032;-49
2023/02/16 04:34:12;;;;;;;74.53;49.13;;;10.50;1.00;;;;;;5113689;27;20094;-49
2023/02/16 04:36:37;;;;;;;80.53;50.07;;;10.50;1.00;;;;;;5111334;28;20023;-50
2023/02/16 04:39:03;;;;;;;78.13;49.43;;;10.50;1.00;;;;;;5112217;28;20023;-49
2023/02/16 04:41:29;;;;;;;77.53;48.17;;;10.40;1.00;;;;;;5111746;27;20035;-49
2023/02/16 04:43:55;;;;;;;80.33;47.23;;;10.40;1.00;;;;;;5112903;28;20103;-50
2023/02/16 04:46:20;;;;;;;72.63;47.83;;;10.40;1.00;;;;;;5112203;27;20043;-49
2023/02/16 04:48:46;;;;;;;71.00;47.87;;;10.50;1.00;;;;;;5120299;27;20441;-49
2023/02/16 04:51:12;;;;;;;75.33;47.87;;;10.40;1.00;;;;;;5117693;27;20519;-49
2023/02/16 04:53:37;;;;;;;72.27;46.60;;;10.40;1.00;;;;;;5111674;28;20035;-49
2023/02/16 04:56:03;;;;;;;70.07;46.37;;;10.40;1.00;;;;;;5111819;28;20038;-49
2023/02/16 04:58:29;;;;;;;69.03;46.00;;;10.40;1.00;;;;;;5116129;27;20089;-50
2023/02/16 05:00:54;;;;;;;66.30;44.67;;;10.40;1.00;;;;;;5111581;28;20020;-49
2023/02/16 05:03:29;;;;;;;66.63;44.13;;;10.40;1.00;;;;;;5112105;28;20027;-50
2023/02/16 05:05:55;;;;;;;65.03;43.33;;;10.40;1.00;;;;;;5112218;28;20020;-49
2023/02/16 05:08:20;;;;;;;64.63;42.27;;;10.30;1.00;;;;;;5111296;28;20118;-52
2023/02/16 05:14:40;;;;;;;67.53;43.73;;;10.40;1.00;;;;;;5110521;28;20450;-49
2023/02/16 05:16:20;;;;;;;60.80;41.20;;;10.40;1.00;;;;;;5112132;28;20496;-49
2023/02/16 05:18:46;;;;;;;66.03;42.53;;;10.40;1.00;;;;;;5111397;28;20035;-48
2023/02/16 05:21:29;;;;;;;63.73;41.87;;;10.40;1.00;;;;;;5110269;28;20077;-51
2023/02/16 05:23:56;;;;;;;64.33;41.57;;;10.40;1.00;;;;;;5111072;28;20503;-53
2023/02/16 05:26:22;;;;;;;61.37;40.67;;;10.40;1.00;;;;;;5106221;28;20035;-52
2023/02/16 05:28:47;;;;;;;61.70;40.43;;;10.40;1.00;;;;;;5108170;28;20512;-53
2023/02/16 05:31:13;;;;;;;58.47;39.27;;;10.30;1.00;;;;;;5107744;28;20035;-53
2023/02/16 05:33:38;;;;;;;57.73;38.63;;;10.30;1.00;;;;;;5111971;28;20027;-52
2023/02/16 05:36:05;;;;;;;61.53;39.20;;;10.30;1.00;;;;;;5110850;28;20032;-50
2023/02/16 05:38:30;;;;;;;59.40;39.40;;;10.30;1.00;;;;;;5111495;28;20107;-52
2023/02/16 05:40:58;;;;;;;56.27;39.80;;;10.40;1.00;;;;;;5110801;28;20125;-51
2023/02/16 05:43:24;;;;;;;54.93;36.83;;;10.40;1.00;;;;;;5112030;28;20349;-50
2023/02/16 05:45:49;;;;;;;60.73;38.07;;;10.40;1.00;;;;;;5107467;28;20048;-49
2023/02/16 05:48:27;;;;;;;54.90;37.93;;;10.40;1.00;;;;;;5111553;28;20370;-49
2023/02/16 05:50:53;;;;;;;53.57;37.50;;;10.40;1.00;;;;;;5111598;28;20063;-49
2023/02/16 05:53:19;;;;;;;56.63;37.50;;;10.40;1.00;;;;;;5111421;28;20451;-49
2023/02/16 05:55:45;;;;;;;54.20;37.77;;;10.50;1.00;;;;;;5111075;28;20107;-49
2023/02/16 05:58:10;;;;;;;54.50;37.17;;;10.40;1.00;;;;;;5108663;28;20020;-49
2023/02/16 06:00:37;;;;;;;55.87;38.50;;;10.30;1.00;;;;;;5110718;28;20059;-50
2023/02/16 06:03:04;;;;;;;50.97;36.20;;;10.40;1.00;;;;;;5111173;28;20453;-50
2023/02/16 06:05:29;;;;;;;57.87;39.03;;;10.40;1.00;;;;;;5110906;28;20384;-48
2023/02/16 06:07:55;;;;;;;58.63;38.07;;;10.30;1.00;;;;;;5112624;28;20019;-48
2023/02/16 06:10:21;;;;;;;54.47;38.53;;;10.40;1.00;;;;;;5109670;28;20043;-48
2023/02/16 06:12:46;;;;;;;55.43;38.13;;;10.40;1.00;;;;;;5111397;28;20051;-49
2023/02/16 06:15:12;;;;;;;58.23;37.63;;;10.40;1.00;;;;;;5105511;27;20433;-50
2023/02/16 06:17:37;;;;;;;61.67;40.10;;;10.40;1.00;;;;;;5115126;27;20155;-49
2023/02/16 06:20:04;;;;;;;57.23;38.47;;;10.40;1.00;;;;;;5114639;28;20034;-51
2023/02/16 06:22:30;;;;;;;57.97;37.93;;;10.40;1.00;;;;;;5111482;27;20358;-50
2023/02/16 06:24:55;;;;;;;58.10;38.80;;;10.40;1.00;;;;;;5114397;28;20118;-50
2023/02/16 06:27:24;;;;;;;57.93;39.30;;;10.40;1.00;;;;;;5114949;28;20023;-49
2023/02/16 06:29:50;;;;;;;55.67;38.37;;;10.40;1.00;;;;;;5114687;27;20080;-49
2023/02/16 06:32:17;;;;;;;57.93;37.97;;;10.40;1.00;;;;;;5114180;27;20420;-50
2023/02/16 06:34:42;;;;;;;56.37;39.60;;;10.40;1.00;;;;;;5114526;28;20391;-49
2023/02/16 06:37:08;;;;;;;55.60;38.37;;;10.40;1.00;;;;;;5112742;28;20126;-49
2023/02/16 06:39:33;;;;;;;57.87;39.63;;;10.40;1.00;;;;;;5114799;28;20030;-49
2023/02/16 06:41:59;;;;;;;51.77;35.60;;;10.30;1.00;;;;;;5114482;27;20104;-51
2023/02/16 06:44:27;;;;;;;53.75;37.10;;;10.40;1.00;;;;;;5113039;28;20426;-50
2023/02/16 06:46:53;;;;;;;49.33;36.63;;;10.50;1.00;;;;;;5113943;27;20039;-49
2023/02/16 06:49:20;;;;;;;54.33;37.13;;;10.50;1.00;;;;;;5115260;28;20039;-49
2023/02/16 06:51:47;;;;;;;49.60;36.13;;;10.50;1.00;;;;;;5113421;28;20043;-49
2023/02/16 06:54:12;;;;;;;57.60;37.80;;;10.50;1.00;;;;;;5110117;28;20040;-49
2023/02/16 06:56:38;;;;;;;49.30;35.27;;;10.50;1.00;;;;;;5111515;28;20020;-50
2023/02/16 06:59:05;;;;;;;46.33;34.43;;;10.50;1.00;;;;;;5113749;28;20493;-51
2023/02/16 07:01:31;;;;;;;51.40;35.40;;;10.50;1.00;;;;;;5112706;27;20027;-50
2023/02/16 07:03:57;;;;;;;55.33;36.07;;;10.60;1.00;;;;;;5113494;28;20384;-50
2023/02/16 07:06:25;;;;;;;52.40;37.13;;;10.60;1.00;;;;;;5113916;28;20019;-53
2023/02/16 07:08:51;;;;;;;55.07;35.87;;;10.60;1.00;;;;;;5100027;28;20023;-52
2023/02/16 07:11:18;;;;;;;54.00;35.85;;;10.50;1.00;;;;;;5109400;27;20067;-52
2023/02/16 07:13:44;;;;;;;48.00;34.63;;;10.60;1.00;;;;;;5114195;27;20065;-53
2023/02/16 07:16:22;;;;;;;47.63;35.50;;;10.60;1.00;;;;;;5112394;28;20476;-52
2023/02/16 07:18:48;;;;;;;52.97;37.05;;;10.60;1.00;;;;;;5114237;28;20027;-50
2023/02/16 07:21:14;;;;;;;55.10;35.87;;;10.60;1.00;;;;;;5108796;28;20032;-50
2023/02/16 07:23:39;;;;;;;53.77;35.03;;;10.70;1.00;;;;;;5110303;27;20130;-50
2023/02/16 07:26:05;;;;;;;45.20;31.70;;;10.70;1.00;;;;;;5114346;27;20496;-50
2023/02/16 07:28:31;;;;;;;44.10;33.13;;;10.70;1.00;;;;;;5108750;28;20019;-50
2023/02/16 07:31:08;;;;;;;49.77;33.80;;;10.70;1.00;;;;;;5111567;28;20035;-50
2023/02/16 07:33:34;;;;;;;46.53;33.03;;;10.80;1.00;;;;;;5113927;28;20019;-49
2023/02/16 07:36:00;;;;;;;45.30;32.28;;;10.80;1.00;;;;;;5110191;28;20088;-49
2023/02/16 07:38:25;;;;;;;42.22;30.90;;;10.80;1.00;;;;;;5113501;28;20100;-50
2023/02/16 07:40:51;;;;;;;42.83;30.40;;;10.80;1.00;;;;;;5111815;27;20423;-49
2023/02/16 07:43:17;;;;;;;40.83;29.98;;;10.80;1.00;;;;;;5113885;28;20024;-51
2023/02/16 07:45:42;;;;;;;46.35;30.70;;;10.80;1.00;;;;;;5115050;27;20083;-48
2023/02/16 07:48:08;;;;;;;40.72;30.58;;;10.80;1.00;;;;;;5113597;28;20098;-49
2023/02/16 07:50:36;;;;;;;42.03;30.35;;;10.80;1.00;;;;;;5111870;27;20032;-49
2023/02/16 07:53:02;;;;;;;45.70;32.65;;;10.90;1.00;;;;;;5114795;27;20357;-48
2023/02/16 07:55:28;;;;;;;37.55;27.83;;;10.90;1.00;;;;;;5111538;28;20034;-48
2023/02/16 07:57:57;;;;;;;36.90;28.63;;;10.80;1.00;;;;;;5113267;28;20165;-49
2023/02/16 08:00:24;;;;;;;39.50;28.02;;;10.90;1.00;;;;;;5113114;27;20039;-50
2023/02/16 08:02:50;;;;;;;35.65;26.02;;;10.80;1.00;;;;;;5113374;27;20103;-59
2023/02/16 08:05:16;;;;;;;36.33;27.42;;;10.90;1.00;;;;;;5112022;28;20020;-57
2023/02/16 08:07:42;;;;;;;38.10;28.60;;;10.90;1.00;;;;;;5112245;28;20019;-59
2023/02/16 08:10:08;;;;;;;43.55;30.02;;;10.80;1.00;;;;;;5113955;27;20396;-59
2023/02/16 08:12:34;;;;;;;41.88;27.65;;;10.80;1.00;;;;;;5115556;27;20434;-59
2023/02/16 08:14:59;;;;;;;39.70;27.08;;;10.90;1.00;;;;;;5113729;27;20089;-59
2023/02/16 08:17:25;;;;;;;38.95;28.23;;;10.90;1.00;;;;;;5108825;28;20058;-59
2023/02/16 08:19:50;;;;;;;41.00;27.60;;;10.90;1.00;;;;;;5107700;28;20023;-59
2023/02/16 08:22:17;;;;;;;35.88;26.40;;;10.90;1.00;;;;;;5112893;28;20024;-59
2023/02/16 08:24:42;;;;;;;39.58;28.35;;;11.00;1.00;;;;;;5111102;27;20043;-59
2023/02/16 08:27:09;;;;;;;37.63;27.17;;;11.00;1.00;;;;;;5112964;27;20423;-58
2023/02/16 08:29:35;;;;;;;36.72;27.25;;;11.00;1.00;;;;;;5111383;28;20035;-59
2023/02/16 08:32:06;;;;;;;33.17;25.83;;;11.10;1.00;;;;;;5124334;27;20043;-58
2023/02/16 08:34:33;;;;;;;35.47;26.25;;;11.20;1.00;;;;;;5112579;28;20031;-56
2023/02/16 08:36:59;;;;;;;35.15;28.27;;;11.30;1.00;;;;;;5111298;28;20469;-56
2023/02/16 08:39:30;;;;;;;36.03;25.27;;;11.30;1.00;;;;;;5111299;28;20152;-54
2023/02/16 08:41:57;;;;;;;37.40;28.13;;;11.20;1.00;;;;;;5111248;28;20027;-52
2023/02/16 08:44:24;;;;;;;37.63;28.52;;;11.40;1.00;;;;;;5113794;27;20035;-49
2023/02/16 08:46:52;;;;;;;36.03;27.00;;;11.50;1.00;;;;;;5109116;28;20024;-51
2023/02/16 08:49:20;;;;;;;35.80;25.60;;;11.40;1.00;;;;;;5110994;27;20031;-46
2023/02/16 08:51:49;;;;;;;37.88;25.73;;;11.50;1.00;;;;;;5109651;27;20027;-54
2023/02/16 08:54:18;;;;;;;33.47;26.35;;;11.50;1.00;;;;;;5109101;28;20030;-50
2023/02/16 08:56:46;;;;;;;33.47;25.10;;;11.50;1.00;;;;;;5113994;27;20020;-56
2023/02/16 08:59:17;;;;;;;32.55;24.80;;;11.60;1.00;;;;;;5112470;28;20480;-55
2023/02/16 09:01:43;;;;;;;34.55;24.98;;;11.60;1.00;;;;;;5111979;28;20022;-57
2023/02/16 09:04:10;;;;;;;37.72;26.15;;;11.60;1.00;;;;;;5112271;27;20020;-53
2023/02/16 09:06:37;;;;;;;37.28;24.73;;;11.70;1.00;;;;;;5112082;28;20016;-54
2023/02/16 09:09:04;;;;;;;32.83;24.65;;;11.70;1.00;;;;;;5110062;28;20128;-50
2023/02/16 09:11:30;;;;;;;34.50;24.80;;;11.70;1.00;;;;;;5092249;28;20044;-57
2023/02/16 09:13:56;;;;;;;36.15;25.65;;;11.80;1.00;;;;;;5111943;28;20024;-59
2023/02/16 09:16:23;;;;;;;32.75;23.98;;;11.80;1.00;;;;;;5106779;28;20480;-57
2023/02/16 09:18:50;;;;;;;30.33;23.80;;;11.80;1.00;;;;;;5116985;28;20019;-57
2023/02/16 09:21:19;;;;;;;31.15;23.77;;;11.90;1.00;;;;;;5111739;28;20063;-58
2023/02/16 09:23:47;;;;;;;31.90;23.40;;;11.90;1.00;;;;;;5109022;28;20115;-59
2023/02/16 09:26:15;;;;;;;29.35;22.65;;;11.80;1.00;;;;;;5105986;27;20440;-58
2023/02/16 09:28:42;;;;;;;30.83;23.33;;;11.80;1.00;;;;;;5110942;28;20019;-57
2023/02/16 09:31:36;;;;;;;36.50;26.38;;;11.80;1.00;;;;;;5111083;28;20042;-55
2023/02/16 09:34:23;;;;;;;30.15;21.92;;;11.90;1.00;;;;;;5111228;28;20438;-58
2023/02/16 09:36:50;;;;;;;31.95;22.92;;;12.00;1.00;;;;;;5104515;28;20131;-58
2023/02/16 09:39:16;;;;;;;30.30;22.67;;;12.10;1.00;;;;;;5112796;28;20093;-56
2023/02/16 09:41:54;;;;;;;28.77;21.58;;;12.10;1.00;;;;;;5110394;28;20027;-56
2023/02/16 09:44:31;;;;;;;28.70;20.67;;;12.10;1.00;;;;;;5109769;28;20035;-58
2023/02/16 09:47:02;;;;;;;28.33;21.88;;;12.10;1.00;;;;;;5107710;28;20031;-56
2023/02/16 09:49:37;;;;;;;26.08;21.02;;;12.20;1.00;;;;;;5110163;28;20414;-53
2023/02/16 09:52:46;;;;;;;21.15;17.17;;;12.20;1.00;;;;;;5110280;27;20915;-50
2023/02/16 09:55:17;;;;;;;24.42;18.30;;;12.20;1.00;;;;;;5117899;27;20028;-57
2023/02/16 09:57:54;;;;;;;22.27;18.60;;;12.30;1.00;;;;;;5110658;27;20085;-60
2023/02/16 10:00:32;;;;;;;22.77;17.45;;;12.30;1.00;;;;;;5113731;27;20032;-59
2023/02/16 10:03:28;;;;;;;21.00;16.02;;;12.40;1.00;;;;;;5108166;27;20042;-53
2023/02/16 10:06:04;;;;;;;22.60;17.60;;;12.40;1.00;;;;;;5111261;27;20104;-53
2023/02/16 10:08:41;;;;;;;20.15;16.92;;;12.50;1.00;;;;;;5113240;27;20054;-54
2023/02/16 10:11:45;;;;;;;24.27;18.55;;;12.50;1.00;;;;;;5112780;27;20503;-54
2023/02/16 10:14:36;;;;;;;24.73;18.15;;;12.50;1.00;;;;;;5113611;28;20028;-54
2023/02/16 10:17:32;;;;;;;26.02;18.23;;;12.50;1.00;;;;;;5117196;27;20019;-59
2023/02/16 10:20:05;;;;;;;21.88;15.95;;;12.60;1.00;;;;;;5098896;28;20453;-59
2023/02/16 10:22:53;;;;;;;20.67;16.63;;;12.60;1.00;;;;;;5120535;27;20039;-53
2023/02/16 10:25:36;;;;;;;21.08;16.33;;;12.70;1.00;;;;;;5115346;27;20027;-55
2023/02/16 10:28:18;;;;;;;18.77;15.07;;;12.70;1.00;;;;;;5115121;28;20545;-58
2023/02/16 10:31:01;;;;;;;20.00;15.60;;;12.70;1.00;;;;;;5115423;28;20024;-60
2023/02/16 10:33:53;;;;;;;20.17;16.23;;;12.80;1.00;;;;;;5102309;28;20462;-58
2023/02/16 10:36:45;;;;;;;26.10;16.98;;;12.80;1.00;;;;;;5114490;28;20023;-58
2023/02/16 10:39:23;;;;;;;19.63;16.55;;;12.90;1.00;;;;;;5102987;28;20113;-57
2023/02/16 10:42:02;;;;;;;20.55;16.88;;;12.90;1.00;;;;;;5107233;28;20480;-57
2023/02/16 10:44:40;;;;;;;23.33;18.67;;;13.00;1.00;;;;;;5109601;28;20034;-60
2023/02/16 10:47:23;;;;;;;19.88;16.02;;;13.00;1.00;;;;;;5114718;28;20112;-57
2023/02/16 10:49:50;;;;;;;23.20;16.75;;;13.00;1.00;;;;;;5110306;27;20073;-57
2023/02/16 10:52:17;;;;;;;18.67;15.02;;;13.10;1.00;;;;;;5117479;27;20046;-58
2023/02/16 10:54:42;;;;;;;18.70;14.95;;;13.10;1.00;;;;;;5101418;27;20032;-61
2023/02/16 10:57:25;;;;;;;21.63;16.02;;;13.20;1.00;;;;;;5109414;28;20035;-51
2023/02/16 10:59:52;;;;;;;25.65;16.90;;;13.20;1.00;;;;;;5113782;27;20031;-56
2023/02/16 11:02:19;;;;;;;19.85;15.85;;;13.20;1.00;;;;;;5109547;27;20031;-57
2023/02/16 11:04:48;;;;;;;19.20;16.02;;;13.30;1.00;;;;;;5112677;28;20112;-52
2023/02/16 11:07:19;;;;;;;22.17;16.85;;;13.30;1.00;;;;;;5107280;28;20028;-57
2023/02/16 11:09:56;;;;;;;20.80;17.05;;;13.30;1.00;;;;;;5111429;28;20049;-57
2023/02/16 11:12:27;;;;;;;23.42;16.27;;;13.50;1.00;;;;;;5108729;28;20546;-57
2023/02/16 11:15:18;;;;;;;19.35;14.48;;;13.40;1.00;;;;;;5111770;27;20031;-59
2023/02/16 11:18:03;;;;;;;19.27;15.25;;;13.40;1.00;;;;;;5111329;28;20327;-60
2023/02/16 11:20:41;;;;;;;17.17;14.15;;;13.50;1.00;;;;;;5103751;27;20024;-60
2023/02/16 11:23:26;;;;;;;17.70;14.73;;;13.50;1.00;;;;;;5108119;27;20024;-60
2023/02/16 11:26:17;;;;;;;17.48;13.93;;;13.60;1.00;;;;;;5107018;27;20039;-61
2023/02/16 11:28:47;;;;;;;17.20;14.43;;;13.60;1.00;;;;;;5111992;28;20035;-62
2023/02/16 11:31:17;;;;;;;14.63;12.88;;;13.60;1.00;;;;;;5104431;28;20365;-62
2023/02/16 11:34:20;;;;;;;24.35;14.18;;;13.70;1.00;;;;;;5114084;28;20392;-60
2023/02/16 11:36:46;;;;;;;15.75;11.85;;;13.70;1.00;;;;;;5067634;28;20035;-60
2023/02/16 11:39:20;;;;;;;14.27;12.43;;;13.70;1.00;;;;;;5111839;28;20032;-60
2023/02/16 11:42:20;;;;;;;17.50;13.30;;;13.80;1.00;;;;;;5109414;28;20050;-61
2023/02/16 11:44:55;;;;;;;18.50;12.95;;;13.80;1.00;;;;;;5086151;28;20130;-59
2023/02/16 11:47:27;;;;;;;16.45;13.55;;;13.90;1.00;;;;;;5112498;28;20032;-66
2023/02/16 11:53:23;;;;;;;17.77;14.73;;;13.90;1.00;;;;;;5101767;28;20070;-59
2023/02/16 11:55:49;;;;;;;20.52;13.95;;;14.00;1.00;;;;;;5101054;28;20016;-58
2023/02/16 11:58:26;;;;;;;17.88;14.10;;;14.10;1.00;;;;;;5110760;28;20394;-59
2023/02/16 12:01:07;;;;;;;18.65;14.68;;;14.10;1.00;;;;;;5109708;28;20050;-59
2023/02/16 12:03:55;;;;;;;20.42;15.23;;;14.20;1.00;;;;;;5109737;28;20028;-54
2023/02/16 12:06:30;;;;;;;22.20;16.85;;;14.20;1.00;;;;;;5105988;28;20376;-55
2023/02/16 12:09:14;;;;;;;17.33;15.30;;;14.30;1.00;;;;;;5102151;27;20036;-54
2023/02/16 12:12:05;;;;;;;20.63;17.08;;;14.30;1.00;;;;;;5104198;28;20078;-54
2023/02/16 12:14:40;;;;;;;20.08;17.17;;;14.30;1.00;;;;;;5106402;28;20475;-55
2023/02/16 12:17:36;;;;;;;24.23;16.80;;;14.40;1.00;;;;;;5101772;27;20324;-54
2023/02/16 12:20:27;;;;;;;19.60;16.15;;;14.40;1.00;;;;;;5103061;28;20069;-52
2023/02/16 12:23:24;;;;;;;20.17;16.73;;;14.40;1.00;;;;;;5108720;28;20031;-56
2023/02/16 12:26:02;;;;;;;21.42;17.17;;;14.50;1.00;;;;;;5103124;28;20157;-53
2023/02/16 12:28:44;;;;;;;19.90;16.20;;;14.50;1.00;;;;;;5111595;28;20030;-53
2023/02/16 12:31:25;;;;;;;21.25;15.00;;;14.50;1.00;;;;;;5110369;28;20062;-52
2023/02/16 12:34:27;;;;;;;18.92;14.35;;;14.60;1.00;;;;;;5113026;28;20031;-54
2023/02/16 12:37:21;;;;;;;19.98;15.20;;;14.60;1.00;;;;;;5097671;28;20104;-54
2023/02/16 12:40:02;;;;;;;22.00;15.80;;;14.50;1.00;;;;;;5110996;28;20473;-55
2023/02/16 12:49:12;;;;;;;21.45;14.95;;;14.80;1.00;;;;;;5100717;28;20504;-56
2023/02/16 12:51:44;;;;;;;19.98;15.90;;;14.80;1.00;;;;;;5110459;28;20027;-54
2023/02/16 12:54:21;;;;;;;25.02;16.08;;;14.90;1.00;;;;;;5103136;28;20042;-53
2023/02/16 12:57:06;;;;;;;22.13;15.63;;;14.90;1.00;;;;;;5111967;28;20074;-57
2023/02/16 12:59:49;;;;;;;;;;;14.90;1.00;;;;;;5113135;28;20032;-53
2023/02/16 13:02:25;;;;;;;17.23;14.77;;;14.90;1.00;;;;;;5110189;28;19984;-54
2023/02/16 13:05:07;;;;;;;17.98;14.55;;;15.00;1.00;;;;;;5112363;28;20016;-53
2023/02/16 13:07:42;;;;;;;18.17;14.77;;;15.10;1.00;;;;;;5110887;28;20377;-54
2023/02/16 13:14:15;;;;;;;20.48;14.57;;;15.20;1.00;;;;;;5079914;28;20094;-53
2023/02/16 13:16:53;;;;;;;19.90;15.07;;;15.20;1.00;;;;;;5104969;28;20115;-57
2023/02/16 13:19:20;;;;;;;19.48;14.77;;;15.30;1.00;;;;;;5112583;28;20504;-56
2023/02/16 13:21:51;;;;;;;19.88;14.63;;;15.30;1.00;;;;;;5111214;28;20053;-55
2023/02/16 13:24:55;;;;;;;25.27;16.17;;;15.30;1.00;;;;;;5111240;28;20032;-56
2023/02/16 13:27:50;;;;;;;17.20;14.85;;;15.30;1.00;;;;;;5111493;28;20135;-52
2023/02/16 13:30:47;;;;;;;18.90;15.52;;;15.30;1.00;;;;;;5109685;28;20024;-55
2023/02/16 13:33:24;;;;;;;21.42;16.77;;;15.40;1.00;;;;;;5107280;28;20051;-53
2023/02/16 13:36:09;;;;;;;23.08;15.82;;;15.40;1.00;;;;;;5111986;28;20036;-53
2023/02/16 13:38:49;;;;;;;19.05;16.27;;;15.40;1.00;;;;;;5098350;28;20415;-55
2023/02/16 13:41:34;;;;;;;19.13;16.38;;;15.40;1.00;;;;;;5106113;28;20043;-53
2023/02/16 13:44:01;;;;;;;18.08;15.75;;;15.50;1.00;;;;;;5112249;28;20056;-54
2023/02/16 13:46:31;;;;;;;20.75;16.40;;;15.50;1.00;;;;;;5111444;28;20541;-55
2023/02/16 13:48:57;;;;;;;19.40;15.88;;;15.40;1.00;;;;;;5111857;28;20024;-56
2023/02/16 13:51:26;;;;;;;20.40;16.45;;;15.40;1.00;;;;;;5111217;28;20042;-55
2023/02/16 13:53:55;;;;;;;25.08;17.27;;;15.50;1.00;;;;;;5098347;28;20039;-54
2023/02/16 13:56:36;;;;;;;17.90;15.38;;;15.50;1.00;;;;;;5111344;28;20040;-52
2023/02/16 13:59:20;;;;;;;21.58;17.23;;;15.50;1.00;;;;;;5099224;28;20508;-56
2023/02/16 14:01:55;;;;;;;19.95;15.93;;;15.50;1.00;;;;;;5110986;28;20038;-54